Time;durP1;ratioP1;P1;durP2;ratioP2;P2;SDS_P1;SDS_P2;PMS_P1;PMS_P2;Temp;Humidity;BMP_temperature;BMP_pressure;BME280_temperature;BME280_humidity;BME280_pressure;Samples;Min_cycle;Max_cycle;Signal;HPM_P1;HPM_P2
2022/01/24 00:02:27;;;;;;;0.00;0.00;;;6.00;99.90;;;;;;6244486;22;20298;-78
2022/01/24 00:04:52;;;;;;;0.00;0.00;;;6.10;99.90;;;;;;6243687;22;20329;-78
2022/01/24 00:07:22;;;;;;;0.00;0.00;;;6.00;99.90;;;;;;6242986;23;20007;-76
2022/01/24 00:09:50;;;;;;;0.00;0.00;;;6.00;99.90;;;;;;6245431;22;20369;-76
2022/01/24 00:12:28;;;;;;;0.00;0.00;;;6.10;99.90;;;;;;6243931;22;20012;-76
2022/01/24 00:17:42;;;;;;;0.00;0.00;;;6.00;99.90;;;;;;6243609;23;20011;-75
2022/01/24 00:28:23;;;;;;;0.00;0.00;;;6.20;99.90;;;;;;6243018;23;20444;-78
2022/01/24 00:30:50;;;;;;;0.00;0.00;;;6.30;99.90;;;;;;6243999;22;20000;-75
2022/01/24 00:33:18;;;;;;;0.00;0.00;;;6.30;99.90;;;;;;6242640;22;20102;-75
2022/01/24 00:35:44;;;;;;;0.00;0.00;;;6.20;99.90;;;;;;6243869;22;20293;-75
2022/01/24 00:38:09;;;;;;;0.00;0.00;;;6.10;99.90;;;;;;6243439;22;20004;-75
2022/01/24 00:40:40;;;;;;;0.00;0.00;;;6.20;99.90;;;;;;6242690;22;20086;-75
2022/01/24 00:43:22;;;;;;;0.00;0.00;;;6.20;99.90;;;;;;6243114;22;20000;-75
2022/01/24 00:48:32;;;;;;;0.00;0.00;;;6.30;99.90;;;;;;6242752;22;20031;-76
2022/01/24 00:56:17;;;;;;;0.00;0.00;;;6.20;99.90;;;;;;6244278;23;20088;-76
2022/01/24 00:58:43;;;;;;;0.00;0.00;;;6.30;99.90;;;;;;6243011;22;20031;-77
2022/01/24 01:01:09;;;;;;;0.00;0.00;;;6.30;99.90;;;;;;6242262;22;20007;-74
2022/01/24 01:03:34;;;;;;;0.00;0.00;;;6.30;99.90;;;;;;6243226;23;20004;-74
2022/01/24 01:19:27;;;;;;;0.00;0.00;;;6.20;99.90;;;;;;6243002;23;20008;-76
2022/01/24 01:21:53;;;;;;;0.00;0.00;;;6.20;99.90;;;;;;6241464;22;20000;-76
2022/01/24 01:24:19;;;;;;;0.00;0.00;;;6.20;99.90;;;;;;6242729;22;20087;-75
2022/01/24 01:26:53;;;;;;;;;;;6.20;99.90;;;;;;6239943;23;20004;-77
2022/01/24 01:29:27;;;;;;;0.00;0.00;;;6.30;99.90;;;;;;6240632;23;19906;-75
2022/01/24 01:56:09;;;;;;;0.00;0.00;;;6.10;99.90;;;;;;6181676;23;20015;-74
2022/01/24 01:58:35;;;;;;;0.00;0.00;;;6.10;99.90;;;;;;6181013;23;20017;-76
2022/01/24 02:01:03;;;;;;;0.00;0.00;;;6.20;99.90;;;;;;6210341;22;20000;-75
2022/01/24 02:03:30;;;;;;;0.00;0.00;;;6.30;99.90;;;;;;6244337;22;20000;-76
2022/01/24 02:05:56;;;;;;;0.00;0.00;;;6.30;99.90;;;;;;6244905;22;20034;-75
2022/01/24 02:08:30;;;;;;;;;;;6.20;99.90;;;;;;6243783;22;20011;-77
2022/01/24 02:10:57;;;;;;;0.00;0.00;;;6.10;99.90;;;;;;6244157;22;20279;-77
2022/01/24 02:13:25;;;;;;;0.00;0.00;;;6.10;99.90;;;;;;6244384;22;19996;-75
2022/01/24 02:23:38;;;;;;;0.00;0.00;;;6.00;99.90;;;;;;6249775;23;20391;-75
2022/01/24 02:26:09;;;;;;;0.00;0.00;;;6.00;99.90;;;;;;6247517;22;19996;-76
2022/01/24 02:31:49;;;;;;;0.00;0.00;;;6.00;99.90;;;;;;6224641;22;20000;-74
2022/01/24 02:34:26;;;;;;;0.00;0.00;;;5.90;99.90;;;;;;6243553;22;20004;-75
2022/01/24 02:36:58;;;;;;;0.00;0.00;;;5.80;99.90;;;;;;6244723;22;20019;-74
2022/01/24 02:50:47;;;;;;;0.00;0.00;;;5.80;99.90;;;;;;6246517;23;20085;-72
2022/01/24 02:53:13;;;;;;;0.00;0.00;;;5.80;99.90;;;;;;6244953;22;20008;-71
2022/01/24 02:55:42;;;;;;;0.00;0.00;;;6.10;99.90;;;;;;6246053;22;19997;-72
2022/01/24 02:58:08;;;;;;;0.00;0.00;;;6.10;99.90;;;;;;6243020;23;20499;-70
2022/01/24 03:00:35;;;;;;;0.00;0.00;;;6.00;99.90;;;;;;6242263;23;20546;-72
2022/01/24 03:03:01;;;;;;;0.00;0.00;;;5.90;99.90;;;;;;6245012;22;20023;-70
2022/01/24 03:05:26;;;;;;;0.00;0.00;;;6.00;99.90;;;;;;6245211;22;20007;-71
2022/01/24 03:07:52;;;;;;;0.00;0.00;;;6.20;99.90;;;;;;6243334;23;20337;-71
2022/01/24 03:10:27;;;;;;;0.00;0.00;;;6.20;99.90;;;;;;6244436;23;20063;-71
2022/01/24 03:13:17;;;;;;;0.00;0.00;;;6.30;99.90;;;;;;6244831;22;20000;-71
2022/01/24 03:15:44;;;;;;;0.00;0.00;;;6.30;99.90;;;;;;6244535;22;20004;-72
2022/01/24 03:18:12;;;;;;;0.00;0.00;;;6.30;99.90;;;;;;6243950;22;20336;-72
2022/01/24 03:20:39;;;;;;;0.00;0.00;;;6.40;99.90;;;;;;6240765;23;20008;-70
2022/01/24 03:23:05;;;;;;;0.00;0.00;;;6.40;99.90;;;;;;6243789;22;20011;-72
2022/01/24 03:25:33;;;;;;;;;;;6.30;99.90;;;;;;6244284;23;20380;-71
2022/01/24 03:27:59;;;;;;;0.00;0.00;;;6.30;99.90;;;;;;6243189;23;19930;-71
2022/01/24 03:30:25;;;;;;;0.00;0.00;;;6.40;99.90;;;;;;6243750;22;20007;-71
2022/01/24 03:32:51;;;;;;;0.00;0.00;;;6.30;99.90;;;;;;6242047;23;19996;-71
2022/01/24 03:35:17;;;;;;;0.00;0.00;;;6.20;99.90;;;;;;6244462;22;20487;-71
2022/01/24 03:37:44;;;;;;;0.00;0.00;;;6.30;99.90;;;;;;6245830;22;20087;-71
2022/01/24 03:40:10;;;;;;;0.00;0.00;;;6.30;99.90;;;;;;6241742;23;20319;-70
2022/01/24 03:42:36;;;;;;;0.00;0.00;;;6.50;99.90;;;;;;6244900;22;20080;-71
2022/01/24 03:45:05;;;;;;;0.00;0.00;;;6.50;99.90;;;;;;6244773;22;20421;-70
2022/01/24 03:50:08;;;;;;;0.00;0.00;;;6.40;99.90;;;;;;6245754;22;20000;-71
2022/01/24 03:52:34;;;;;;;0.00;0.00;;;6.40;99.90;;;;;;6241141;23;20054;-70
2022/01/24 03:55:02;;;;;;;0.00;0.00;;;6.50;99.90;;;;;;6243123;23;20390;-72
2022/01/24 03:57:28;;;;;;;0.00;0.00;;;6.50;99.90;;;;;;6243127;23;20008;-70
2022/01/24 03:59:54;;;;;;;0.00;0.00;;;6.50;99.90;;;;;;6243758;22;20075;-71
2022/01/24 04:02:22;;;;;;;;;;;6.40;99.90;;;;;;6246488;22;20437;-72
2022/01/24 04:04:48;;;;;;;0.00;0.00;;;6.40;99.90;;;;;;6245341;22;19899;-71
2022/01/24 04:07:14;;;;;;;0.00;0.00;;;6.40;99.90;;;;;;6244597;22;20432;-70
2022/01/24 04:09:41;;;;;;;;;;;6.40;99.90;;;;;;6246545;22;20004;-71
2022/01/24 04:12:09;;;;;;;0.00;0.00;;;6.40;99.90;;;;;;6245311;22;19915;-71
2022/01/24 04:17:08;;;;;;;0.00;0.00;;;6.30;99.90;;;;;;6245066;22;20030;-72
2022/01/24 04:22:29;;;;;;;0.00;0.00;;;6.10;99.90;;;;;;6245186;22;20083;-71
2022/01/24 04:25:00;;;;;;;0.00;0.00;;;6.10;99.90;;;;;;6244084;22;19996;-71
2022/01/24 04:27:27;;;;;;;0.00;0.00;;;6.00;99.90;;;;;;6242904;22;20387;-71
2022/01/24 04:29:53;;;;;;;0.00;0.00;;;6.10;99.90;;;;;;6243140;23;20031;-70
2022/01/24 04:32:19;;;;;;;0.00;0.00;;;6.30;99.90;;;;;;6243493;22;20001;-72
2022/01/24 04:34:45;;;;;;;0.00;0.00;;;6.30;99.90;;;;;;6241479;22;20000;-70
2022/01/24 04:37:11;;;;;;;0.00;0.00;;;6.40;99.90;;;;;;6244370;22;20015;-71
2022/01/24 04:39:37;;;;;;;0.00;0.00;;;6.50;99.90;;;;;;6243532;22;20007;-71
2022/01/24 04:42:14;;;;;;;0.00;0.00;;;6.60;99.90;;;;;;6242614;23;20004;-70
2022/01/24 04:47:26;;;;;;;0.00;0.00;;;6.60;99.90;;;;;;6241955;23;20459;-71
2022/01/24 04:52:48;;;;;;;0.00;0.00;;;6.40;99.90;;;;;;6243446;23;20359;-71
2022/01/24 04:55:14;;;;;;;0.00;0.00;;;6.20;99.90;;;;;;6243106;22;20006;-71
2022/01/24 04:57:41;;;;;;;;;;;6.30;99.90;;;;;;6244529;23;20035;-71
2022/01/24 05:00:10;;;;;;;0.00;0.00;;;6.40;99.90;;;;;;6240124;23;19899;-70
2022/01/24 05:02:35;;;;;;;0.00;0.00;;;6.40;99.90;;;;;;6243475;22;20221;-70
2022/01/24 05:05:01;;;;;;;0.00;0.00;;;6.30;99.90;;;;;;6242915;23;20000;-72
2022/01/24 05:07:27;;;;;;;0.00;0.00;;;6.30;99.90;;;;;;6241506;22;20004;-71
2022/01/24 05:10:12;;;;;;;0.00;0.00;;;6.30;99.90;;;;;;6243714;23;20007;-73
2022/01/24 05:25:54;;;;;;;0.00;0.00;;;6.60;99.90;;;;;;6244953;22;20004;-71
2022/01/24 05:28:21;;;;;;;0.00;0.00;;;6.50;99.90;;;;;;6243810;22;20309;-71
2022/01/24 05:30:46;;;;;;;;;;;6.50;99.90;;;;;;6244206;23;20078;-72
2022/01/24 05:33:12;;;;;;;0.00;0.00;;;6.50;99.90;;;;;;6243871;22;19990;-72
2022/01/24 05:35:38;;;;;;;0.00;0.00;;;6.50;99.90;;;;;;6245830;23;20000;-71
2022/01/24 05:38:04;;;;;;;0.00;0.00;;;6.60;99.90;;;;;;6242719;23;20046;-72
2022/01/24 05:40:30;;;;;;;0.00;0.00;;;6.50;99.90;;;;;;6244446;22;20066;-72
2022/01/24 05:42:56;;;;;;;;;;;6.20;99.90;;;;;;6246351;22;20336;-71
2022/01/24 05:45:22;;;;;;;0.00;0.00;;;6.20;99.90;;;;;;6245298;22;19953;-71
2022/01/24 05:47:48;;;;;;;0.00;0.00;;;6.20;99.90;;;;;;6243532;23;20014;-72
2022/01/24 05:50:13;;;;;;;0.00;0.00;;;6.20;99.90;;;;;;6244679;22;20393;-70
2022/01/24 05:52:39;;;;;;;0.00;0.00;;;6.30;99.90;;;;;;6242662;23;20000;-72
2022/01/24 05:55:06;;;;;;;0.00;0.00;;;6.10;99.90;;;;;;6241801;23;20003;-70
2022/01/24 05:57:32;;;;;;;0.00;0.00;;;6.20;99.90;;;;;;6216855;23;20020;-72
2022/01/24 05:59:57;;;;;;;0.00;0.00;;;6.40;99.90;;;;;;6241419;23;20424;-71
2022/01/24 06:02:23;;;;;;;0.00;0.00;;;6.40;99.90;;;;;;6241787;23;20026;-71
2022/01/24 06:04:49;;;;;;;0.00;0.00;;;6.30;99.90;;;;;;6244989;22;20003;-71
2022/01/24 06:07:15;;;;;;;;;;;6.30;99.90;;;;;;6243754;22;20004;-71
2022/01/24 06:09:41;;;;;;;0.00;0.00;;;6.40;99.90;;;;;;6244210;22;19994;-71
2022/01/24 06:12:07;;;;;;;0.00;0.00;;;6.50;99.90;;;;;;6244654;23;20091;-71
2022/01/24 06:14:33;;;;;;;;;;;6.40;99.90;;;;;;6243971;22;20028;-71
2022/01/24 06:16:58;;;;;;;0.00;0.00;;;6.30;99.90;;;;;;6244491;22;19914;-70
2022/01/24 06:19:24;;;;;;;0.00;0.00;;;6.20;99.90;;;;;;6244740;23;20004;-72
2022/01/24 06:21:50;;;;;;;0.00;0.00;;;6.30;99.90;;;;;;6243813;23;20011;-71
2022/01/24 06:24:15;;;;;;;0.00;0.00;;;6.50;99.90;;;;;;6244547;23;20016;-73
2022/01/24 06:26:43;;;;;;;0.00;0.00;;;6.50;99.90;;;;;;6244606;22;20004;-71
2022/01/24 06:29:10;;;;;;;0.00;0.00;;;6.50;99.90;;;;;;6243398;23;20067;-70
2022/01/24 06:31:35;;;;;;;0.00;0.00;;;6.40;99.90;;;;;;6245273;22;20000;-73
2022/01/24 06:34:01;;;;;;;0.00;0.00;;;6.50;99.90;;;;;;6243856;23;20425;-71
2022/01/24 06:36:27;;;;;;;0.00;0.00;;;6.50;99.90;;;;;;6245126;22;20007;-71
2022/01/24 06:38:53;;;;;;;0.00;0.00;;;6.40;99.90;;;;;;6244911;22;20007;-72
2022/01/24 06:41:25;;;;;;;0.00;0.00;;;6.40;99.90;;;;;;6243387;23;20332;-72
2022/01/24 06:43:51;;;;;;;0.00;0.00;;;6.20;99.90;;;;;;6244570;22;20042;-71
2022/01/24 06:46:17;;;;;;;0.00;0.00;;;6.30;99.90;;;;;;6244162;23;20000;-71
2022/01/24 06:48:42;;;;;;;0.00;0.00;;;6.30;99.90;;;;;;6243462;23;20451;-73
2022/01/24 06:51:10;;;;;;;0.00;0.00;;;6.20;99.90;;;;;;6243642;23;20004;-71
2022/01/24 06:53:39;;;;;;;0.00;0.00;;;6.30;99.90;;;;;;6242937;22;20126;-70
2022/01/24 06:56:05;;;;;;;0.00;0.00;;;6.40;99.90;;;;;;6243730;22;20118;-71
2022/01/24 06:58:32;;;;;;;0.00;0.00;;;6.20;99.90;;;;;;6244042;23;20008;-71
2022/01/24 07:00:58;;;;;;;0.00;0.00;;;6.10;99.90;;;;;;6241548;22;20077;-70
2022/01/24 07:03:23;;;;;;;0.00;0.00;;;6.00;99.90;;;;;;6243626;22;20408;-71
2022/01/24 07:05:49;;;;;;;0.00;0.00;;;6.10;99.90;;;;;;6245602;23;20417;-71
2022/01/24 07:08:15;;;;;;;0.00;0.00;;;6.20;99.90;;;;;;6245853;23;20000;-72
2022/01/24 07:10:40;;;;;;;0.00;0.00;;;6.30;99.90;;;;;;6244813;22;20019;-71
2022/01/24 07:13:06;;;;;;;0.00;0.00;;;6.30;99.90;;;;;;6244900;23;20003;-72
2022/01/24 07:15:41;;;;;;;0.00;0.00;;;6.20;99.90;;;;;;6243018;22;20505;-71
2022/01/24 07:20:39;;;;;;;0.00;0.00;;;5.90;99.90;;;;;;6243657;23;20039;-71
2022/01/24 07:23:05;;;;;;;0.00;0.00;;;6.00;99.90;;;;;;6244261;23;19996;-72
2022/01/24 07:25:31;;;;;;;;;;;6.10;99.90;;;;;;6245090;22;20008;-71
2022/01/24 07:27:57;;;;;;;0.00;0.00;;;6.20;99.90;;;;;;6242446;22;19903;-72
2022/01/24 07:30:24;;;;;;;0.00;0.00;;;6.20;99.90;;;;;;6243667;22;20004;-73
2022/01/24 07:32:50;;;;;;;0.00;0.00;;;6.10;99.90;;;;;;6241928;22;20459;-71
2022/01/24 07:35:15;;;;;;;;;;;6.10;99.90;;;;;;6239177;23;19997;-76
2022/01/24 07:37:41;;;;;;;0.00;0.00;;;6.00;99.90;;;;;;6243997;22;19908;-76
2022/01/24 07:40:09;;;;;;;0.00;0.00;;;5.80;99.90;;;;;;6238842;23;20004;-74
2022/01/24 07:45:22;;;;;;;0.00;0.00;;;5.80;99.90;;;;;;6244279;22;20000;-74
2022/01/24 07:47:48;;;;;;;0.00;0.00;;;5.70;99.90;;;;;;6241782;22;20424;-73
2022/01/24 07:50:15;;;;;;;0.00;0.00;;;5.90;99.90;;;;;;6241032;23;19997;-75
2022/01/24 07:52:41;;;;;;;0.00;0.00;;;5.90;99.90;;;;;;6243930;22;20294;-74
2022/01/24 07:55:07;;;;;;;0.00;0.00;;;5.90;99.90;;;;;;6242679;22;19996;-73
2022/01/24 07:57:33;;;;;;;0.00;0.00;;;6.00;99.90;;;;;;6243276;23;20076;-74
2022/01/24 07:59:59;;;;;;;0.00;0.00;;;5.80;99.90;;;;;;6241306;22;20008;-73
2022/01/24 08:02:25;;;;;;;0.00;0.00;;;5.70;99.90;;;;;;6241722;23;19996;-74
2022/01/24 08:04:50;;;;;;;0.00;0.00;;;5.80;99.90;;;;;;6252383;22;19984;-74
2022/01/24 08:07:16;;;;;;;0.00;0.00;;;5.90;99.90;;;;;;6244125;22;20000;-74
2022/01/24 08:09:42;;;;;;;0.00;0.00;;;5.90;99.90;;;;;;6242519;23;20209;-74
2022/01/24 08:12:08;;;;;;;0.00;0.00;;;6.00;99.90;;;;;;6242083;23;20324;-73
2022/01/24 08:14:34;;;;;;;0.00;0.00;;;6.10;99.90;;;;;;6241559;22;19993;-75
2022/01/24 08:17:02;;;;;;;0.00;0.00;;;6.00;99.90;;;;;;6242220;22;20008;-76
2022/01/24 08:19:28;;;;;;;0.00;0.00;;;6.00;99.90;;;;;;6242078;22;20000;-75
2022/01/24 08:21:56;;;;;;;;;;;6.00;99.90;;;;;;6240013;23;20023;-75
2022/01/24 08:24:23;;;;;;;0.00;0.00;;;5.90;99.90;;;;;;6243632;22;19906;-75
2022/01/24 08:26:48;;;;;;;0.00;0.00;;;5.90;99.90;;;;;;6242606;22;20211;-72
2022/01/24 08:29:14;;;;;;;0.00;0.00;;;5.90;99.90;;;;;;6244836;23;20000;-74
2022/01/24 08:31:40;;;;;;;0.00;0.00;;;5.90;99.90;;;;;;6244436;22;20000;-73
2022/01/24 08:34:06;;;;;;;0.00;0.00;;;6.00;99.90;;;;;;6240863;23;20024;-75
2022/01/24 08:36:31;;;;;;;0.00;0.00;;;6.00;99.90;;;;;;6240879;23;20004;-76
2022/01/24 08:39:07;;;;;;;0.00;0.00;;;6.00;99.90;;;;;;6244133;23;19996;-75
2022/01/24 08:42:28;;;;;;;0.00;0.00;;;6.00;99.90;;;;;;6243070;22;20039;-74
2022/01/24 08:45:42;;;;;;;0.00;0.00;;;5.90;99.90;;;;;;6232731;23;20007;-75
2022/01/24 08:47:17;;;;;;;0.00;0.00;;;5.80;99.90;;;;;;6243485;23;20424;-75
2022/01/24 08:49:42;;;;;;;0.00;0.00;;;5.80;99.90;;;;;;6240340;23;20150;-75
2022/01/24 08:52:09;;;;;;;0.00;0.00;;;5.70;99.90;;;;;;6241021;23;20301;-76
2022/01/24 08:54:35;;;;;;;0.00;0.00;;;5.80;99.90;;;;;;6241743;22;19997;-76
2022/01/24 08:57:00;;;;;;;0.00;0.00;;;5.80;99.90;;;;;;6242997;23;20375;-74
2022/01/24 08:59:26;;;;;;;0.00;0.00;;;5.70;99.90;;;;;;6244130;22;20004;-75
2022/01/24 09:01:52;;;;;;;0.00;0.00;;;5.60;99.90;;;;;;6246733;22;20000;-75
2022/01/24 09:04:18;;;;;;;;;;;5.70;99.90;;;;;;6246925;22;20091;-74
2022/01/24 09:06:43;;;;;;;0.00;0.00;;;5.80;99.90;;;;;;6244151;23;20335;-75
2022/01/24 09:09:09;;;;;;;0.00;0.00;;;5.90;99.90;;;;;;6243604;23;20000;-75
2022/01/24 09:11:36;;;;;;;0.00;0.00;;;6.00;99.90;;;;;;6246489;23;20051;-75
2022/01/24 09:14:04;;;;;;;0.00;0.00;;;5.90;99.90;;;;;;6251123;22;20007;-75
2022/01/24 09:16:30;;;;;;;0.00;0.00;;;6.00;99.90;;;;;;6251462;22;20000;-76
2022/01/24 09:18:55;;;;;;;0.00;0.00;;;5.90;99.90;;;;;;6251638;23;19996;-75
2022/01/24 09:21:23;;;;;;;0.00;0.00;;;5.80;99.90;;;;;;6251014;23;20004;-75
2022/01/24 09:23:49;;;;;;;0.00;0.00;;;5.90;99.90;;;;;;6248414;23;20003;-76
2022/01/24 09:26:17;;;;;;;0.00;0.00;;;5.90;99.90;;;;;;6245448;22;20054;-76
2022/01/24 09:28:43;;;;;;;0.00;0.00;;;5.90;99.90;;;;;;6251593;22;20056;-74
2022/01/24 09:31:09;;;;;;;0.00;0.00;;;6.00;99.90;;;;;;6263458;23;20027;-76
2022/01/24 09:33:35;;;;;;;0.00;0.00;;;5.90;99.90;;;;;;6254237;22;20378;-76
2022/01/24 09:36:02;;;;;;;;;;;5.90;99.90;;;;;;6245077;23;20383;-75
2022/01/24 09:38:30;;;;;;;0.00;0.00;;;5.90;99.90;;;;;;6244730;22;19912;-75
2022/01/24 09:40:57;;;;;;;0.00;0.00;;;5.90;99.90;;;;;;6243703;22;20000;-75
2022/01/24 09:43:23;;;;;;;0.00;0.00;;;6.00;99.90;;;;;;6245180;22;20004;-76
2022/01/24 09:45:49;;;;;;;0.00;0.00;;;6.00;99.90;;;;;;6244515;23;20420;-75
2022/01/24 09:48:16;;;;;;;0.00;0.00;;;6.00;99.90;;;;;;6243488;23;20497;-76
2022/01/24 09:50:46;;;;;;;0.00;0.00;;;6.00;99.90;;;;;;6242630;23;20440;-75
2022/01/24 09:53:16;;;;;;;0.00;0.00;;;6.10;99.90;;;;;;6242346;22;20046;-76
2022/01/24 09:55:42;;;;;;;0.00;0.00;;;6.20;99.90;;;;;;6240113;22;20008;-76
2022/01/24 09:58:07;;;;;;;0.00;0.00;;;6.20;99.90;;;;;;6243325;23;20008;-76
2022/01/24 10:00:33;;;;;;;0.00;0.00;;;6.10;99.90;;;;;;6243786;23;20012;-75
2022/01/24 10:02:59;;;;;;;0.00;0.00;;;6.10;99.90;;;;;;6248395;23;20079;-77
2022/01/24 10:05:33;;;;;;;0.00;0.00;;;5.90;99.90;;;;;;6247902;23;20000;-76
2022/01/24 10:08:00;;;;;;;0.00;0.00;;;6.00;99.90;;;;;;6245663;23;20000;-76
2022/01/24 10:10:45;;;;;;;0.00;0.00;;;6.00;99.90;;;;;;6248518;22;20101;-75
2022/01/24 10:16:27;;;;;;;0.00;0.00;;;6.10;99.90;;;;;;6247500;23;20010;-76
2022/01/24 10:19:03;;;;;;;0.00;0.00;;;6.10;99.90;;;;;;6250131;22;20071;-76
2022/01/24 10:21:28;;;;;;;0.00;0.00;;;6.20;99.90;;;;;;6246937;22;20004;-75
2022/01/24 10:23:56;;;;;;;0.00;0.00;;;6.20;99.90;;;;;;6247137;23;20008;-77
2022/01/24 10:26:24;;;;;;;0.00;0.00;;;6.20;99.90;;;;;;6252014;22;20321;-78
2022/01/24 10:28:50;;;;;;;0.00;0.00;;;6.20;99.90;;;;;;6251101;22;20008;-76
2022/01/24 10:31:28;;;;;;;0.00;0.00;;;6.10;99.90;;;;;;6252808;23;20308;-77
2022/01/24 10:33:55;;;;;;;0.00;0.00;;;6.00;99.90;;;;;;6248244;22;20458;-76
2022/01/24 10:36:47;;;;;;;0.00;0.00;;;5.90;99.90;;;;;;6246903;23;20440;-76
2022/01/24 10:39:43;;;;;;;0.00;0.00;;;6.00;99.90;;;;;;6248385;22;20012;-75
2022/01/24 10:44:53;;;;;;;0.00;0.00;;;6.10;99.90;;;;;;6247937;22;20004;-75
2022/01/24 10:47:23;;;;;;;0.00;0.00;;;6.10;99.90;;;;;;6245005;22;20015;-75
2022/01/24 10:49:50;;;;;;;0.00;0.00;;;6.00;99.90;;;;;;6245014;23;20004;-75
2022/01/24 10:52:24;;;;;;;0.00;0.00;;;6.00;99.90;;;;;;6245888;22;20071;-76
2022/01/24 10:54:52;;;;;;;0.00;0.00;;;5.90;99.90;;;;;;6245262;22;20027;-77
2022/01/24 10:57:23;;;;;;;0.00;0.00;;;5.90;99.90;;;;;;6246377;22;20004;-76
2022/01/24 10:59:49;;;;;;;0.00;0.00;;;6.00;99.90;;;;;;6244594;23;20326;-76
2022/01/24 11:02:16;;;;;;;0.00;0.00;;;5.90;99.90;;;;;;6245843;22;20459;-75
2022/01/24 11:04:42;;;;;;;0.00;0.00;;;6.10;99.90;;;;;;6245527;22;19992;-75
2022/01/24 11:07:08;;;;;;;0.00;0.00;;;6.10;99.90;;;;;;6241924;23;20015;-74
2022/01/24 11:09:40;;;;;;;0.00;0.00;;;6.10;99.90;;;;;;6245243;22;20455;-76
2022/01/24 11:12:12;;;;;;;0.00;0.00;;;6.10;99.90;;;;;;6218987;23;20102;-73
2022/01/24 11:14:40;;;;;;;0.00;0.00;;;6.00;99.90;;;;;;6241943;23;20000;-77
2022/01/24 11:17:09;;;;;;;0.00;0.00;;;6.20;99.90;;;;;;6244450;22;20007;-74
2022/01/24 11:19:45;;;;;;;0.00;0.00;;;6.20;99.90;;;;;;6244518;22;20034;-75
2022/01/24 11:22:20;;;;;;;0.00;0.00;;;6.10;99.90;;;;;;6244285;22;20030;-77
2022/01/24 11:24:54;;;;;;;0.00;0.00;;;6.00;99.90;;;;;;6245128;22;20004;-76
2022/01/24 11:27:21;;;;;;;0.00;0.00;;;6.10;99.90;;;;;;6243696;22;20000;-76
2022/01/24 11:29:49;;;;;;;0.00;0.00;;;6.10;99.90;;;;;;6244368;22;20046;-76
2022/01/24 11:32:38;;;;;;;0.00;0.00;;;6.10;99.90;;;;;;6245725;23;20063;-76
2022/01/24 11:35:05;;;;;;;0.00;0.00;;;6.20;99.90;;;;;;6247155;22;20004;-76
2022/01/24 11:37:40;;;;;;;0.00;0.00;;;6.20;99.90;;;;;;6244661;23;20379;-77
2022/01/24 11:40:16;;;;;;;0.00;0.00;;;6.20;99.90;;;;;;6245568;22;20000;-75
2022/01/24 11:42:46;;;;;;;0.00;0.00;;;6.10;99.90;;;;;;6245978;22;20007;-76
2022/01/24 11:45:14;;;;;;;0.00;0.00;;;6.10;99.90;;;;;;6246280;22;20328;-76
2022/01/24 11:47:42;;;;;;;0.00;0.00;;;6.10;99.90;;;;;;6243661;22;19996;-77
2022/01/24 11:50:30;;;;;;;0.00;0.00;;;6.10;99.90;;;;;;6244836;22;20000;-76
2022/01/24 11:52:56;;;;;;;0.00;0.00;;;6.20;99.90;;;;;;6244234;22;20023;-76
2022/01/24 11:55:31;;;;;;;0.00;0.00;;;6.10;99.90;;;;;;6243930;22;20071;-76
2022/01/24 11:58:05;;;;;;;0.00;0.00;;;6.00;99.90;;;;;;6242974;23;20340;-75
2022/01/24 12:00:38;;;;;;;0.00;0.00;;;5.90;99.90;;;;;;6243662;23;20000;-77
2022/01/24 12:03:23;;;;;;;0.00;0.00;;;6.00;99.90;;;;;;6245008;22;20073;-76
2022/01/24 12:05:53;;;;;;;0.00;0.00;;;6.20;99.90;;;;;;6245099;22;20012;-77
2022/01/24 12:08:41;;;;;;;0.00;0.00;;;6.30;99.90;;;;;;6244061;23;20005;-77
2022/01/24 12:11:22;;;;;;;0.00;0.00;;;6.30;99.90;;;;;;6244309;22;20016;-75
2022/01/24 12:13:55;;;;;;;0.00;0.00;;;6.20;99.90;;;;;;6243178;22;20053;-77
2022/01/24 12:16:33;;;;;;;0.00;0.00;;;6.10;99.90;;;;;;6244316;22;20004;-78
2022/01/24 12:19:03;;;;;;;0.00;0.00;;;6.10;99.90;;;;;;6245294;22;20031;-76
2022/01/24 12:21:31;;;;;;;0.00;0.00;;;6.10;99.90;;;;;;6241355;23;20015;-75
2022/01/24 12:24:08;;;;;;;0.00;0.00;;;6.10;99.90;;;;;;6244244;22;20045;-75
2022/01/24 12:26:47;;;;;;;0.00;0.00;;;5.90;99.90;;;;;;6243064;22;20054;-76
2022/01/24 12:29:21;;;;;;;0.00;0.00;;;6.00;99.90;;;;;;6244972;22;20134;-78
2022/01/24 12:31:58;;;;;;;0.00;0.00;;;6.00;99.90;;;;;;6242709;23;20302;-76
2022/01/24 12:34:37;;;;;;;0.00;0.00;;;6.10;99.90;;;;;;6243517;22;20011;-76
2022/01/24 12:37:10;;;;;;;0.00;0.00;;;6.10;99.90;;;;;;6242750;23;20008;-76
2022/01/24 12:39:52;;;;;;;0.00;0.00;;;6.10;99.90;;;;;;6244357;22;20028;-74
2022/01/24 12:42:47;;;;;;;0.00;0.00;;;6.10;99.90;;;;;;6242260;23;20008;-76
2022/01/24 12:48:15;;;;;;;0.00;0.00;;;6.30;99.90;;;;;;6242357;23;20011;-77
2022/01/24 12:50:46;;;;;;;0.00;0.00;;;6.40;99.90;;;;;;6244028;22;20300;-77
2022/01/24 12:53:14;;;;;;;0.00;0.00;;;6.10;99.90;;;;;;6242210;22;19996;-77
2022/01/24 12:55:41;;;;;;;0.00;0.00;;;6.00;99.90;;;;;;6243722;22;20079;-76
2022/01/24 12:58:07;;;;;;;0.00;0.00;;;6.10;99.90;;;;;;6242307;23;20066;-77
2022/01/24 13:00:33;;;;;;;0.00;0.00;;;6.10;99.90;;;;;;6243012;23;20035;-77
2022/01/24 13:02:59;;;;;;;0.00;0.00;;;6.10;99.90;;;;;;6243654;22;20393;-75
2022/01/24 13:05:28;;;;;;;0.00;0.00;;;6.10;99.90;;;;;;6242824;23;20011;-75
2022/01/24 13:07:56;;;;;;;0.00;0.00;;;6.10;99.90;;;;;;6239064;23;20022;-76
2022/01/24 13:10:27;;;;;;;0.00;0.00;;;6.10;99.90;;;;;;6241982;23;20119;-75
2022/01/24 13:12:56;;;;;;;0.00;0.00;;;6.10;99.90;;;;;;6242257;22;20038;-75
2022/01/24 13:20:24;;;;;;;0.00;0.00;;;6.30;99.90;;;;;;6242438;22;20000;-74
2022/01/24 13:21:09;;;;;;;0.00;0.00;;;6.20;99.90;;;;;;6242894;23;20479;-75
2022/01/24 13:23:39;;;;;;;0.00;0.00;;;6.20;99.90;;;;;;6243293;22;20004;-73
2022/01/24 13:26:06;;;;;;;0.00;0.00;;;6.10;99.90;;;;;;6243650;22;20000;-75
2022/01/24 13:28:32;;;;;;;0.00;0.00;;;6.00;99.90;;;;;;6241057;22;20007;-76
2022/01/24 13:31:01;;;;;;;0.00;0.00;;;6.00;99.90;;;;;;6243600;23;20000;-75
2022/01/24 13:33:27;;;;;;;0.00;0.00;;;6.00;99.90;;;;;;6242835;22;19996;-75
2022/01/24 13:36:09;;;;;;;0.00;0.00;;;6.00;99.90;;;;;;6244260;22;20054;-76
2022/01/24 13:38:39;;;;;;;0.00;0.00;;;6.10;99.90;;;;;;6243760;23;20054;-76
2022/01/24 13:41:08;;;;;;;0.00;0.00;;;6.30;99.90;;;;;;6242354;22;20004;-75
2022/01/24 13:43:53;;;;;;;0.00;0.00;;;6.50;99.90;;;;;;6242812;22;20008;-75
2022/01/24 13:46:26;;;;;;;0.00;0.00;;;6.60;99.90;;;;;;6243565;22;20087;-76
2022/01/24 13:48:53;;;;;;;0.00;0.00;;;6.60;99.90;;;;;;6242337;22;20004;-75
2022/01/24 13:51:22;;;;;;;0.00;0.00;;;6.70;99.90;;;;;;6243459;23;20004;-75
2022/01/24 13:53:56;;;;;;;0.00;0.00;;;6.60;99.90;;;;;;6242645;22;19997;-74
2022/01/24 13:56:32;;;;;;;0.00;0.00;;;6.60;99.90;;;;;;6245079;22;19997;-77
2022/01/24 13:58:59;;;;;;;0.00;0.00;;;6.60;99.90;;;;;;6245468;22;20012;-74
2022/01/24 14:01:26;;;;;;;0.00;0.00;;;6.50;99.90;;;;;;6242268;22;20001;-73
2022/01/24 14:03:56;;;;;;;0.00;0.00;;;6.50;99.90;;;;;;6244979;22;20004;-75
2022/01/24 14:06:22;;;;;;;0.00;0.00;;;6.60;99.90;;;;;;6243893;23;20339;-74
2022/01/24 14:09:12;;;;;;;0.00;0.00;;;6.60;99.90;;;;;;6244034;22;20174;-75
2022/01/24 14:11:47;;;;;;;0.00;0.00;;;6.50;99.90;;;;;;6244796;23;20019;-75
2022/01/24 14:14:18;;;;;;;0.00;0.00;;;6.50;99.90;;;;;;6245044;22;20328;-74
2022/01/24 14:19:13;;;;;;;0.00;0.00;;;6.50;99.90;;;;;;6246060;23;20008;-75
2022/01/24 14:21:39;;;;;;;0.00;0.00;;;6.40;99.90;;;;;;6243115;23;20087;-75
2022/01/24 14:24:07;;;;;;;0.00;0.00;;;6.40;99.90;;;;;;6244948;23;20005;-76
2022/01/24 14:26:44;;;;;;;0.00;0.00;;;6.50;99.90;;;;;;6244750;22;20003;-75
2022/01/24 14:29:15;;;;;;;;;;;6.40;99.90;;;;;;6246306;23;20377;-75
2022/01/24 14:31:44;;;;;;;0.00;0.00;;;6.30;99.90;;;;;;6244204;23;19972;-75
2022/01/24 14:34:15;;;;;;;0.00;0.00;;;6.40;99.90;;;;;;6245150;22;20075;-75
2022/01/24 14:36:40;;;;;;;0.00;0.00;;;6.10;99.90;;;;;;6244839;22;20001;-74
2022/01/24 14:39:08;;;;;;;0.00;0.00;;;5.90;99.90;;;;;;6245194;23;20011;-75
2022/01/24 14:41:48;;;;;;;0.00;0.00;;;6.00;99.90;;;;;;6243876;22;20004;-74
2022/01/24 14:47:01;;;;;;;0.00;0.00;;;6.20;99.90;;;;;;6243642;23;20016;-75
2022/01/24 14:49:33;;;;;;;0.00;0.00;;;6.30;99.90;;;;;;6244988;22;20008;-75
2022/01/24 14:52:11;;;;;;;0.00;0.00;;;6.30;99.90;;;;;;6245286;22;20000;-74
2022/01/24 14:54:39;;;;;;;0.00;0.00;;;6.30;99.90;;;;;;6243850;22;20013;-74
2022/01/24 14:57:07;;;;;;;0.00;0.00;;;6.40;99.90;;;;;;6245146;22;20004;-73
2022/01/24 14:59:33;;;;;;;0.00;0.00;;;6.40;99.90;;;;;;6246982;22;20001;-73
2022/01/24 15:02:00;;;;;;;0.00;0.00;;;6.40;99.90;;;;;;6243502;22;19997;-73
2022/01/24 15:04:26;;;;;;;0.00;0.00;;;6.40;99.90;;;;;;6244407;22;20409;-75
2022/01/24 15:06:52;;;;;;;0.00;0.00;;;6.40;99.90;;;;;;6243820;22;20031;-75
2022/01/24 15:09:24;;;;;;;0.00;0.00;;;6.40;99.90;;;;;;6244549;22;20025;-74
2022/01/24 15:11:51;;;;;;;0.00;0.00;;;6.50;99.90;;;;;;6244629;22;20461;-75
2022/01/24 15:14:44;;;;;;;0.00;0.00;;;6.40;99.90;;;;;;6244268;22;20004;-73
2022/01/24 15:17:45;;;;;;;0.00;0.00;;;6.20;99.90;;;;;;6244291;23;20050;-74
2022/01/24 15:25:23;;;;;;;0.00;0.00;;;6.20;99.90;;;;;;6245418;23;20023;-75